createdAt,value
2019-05-03T00:02:28.067Z,9.10
2019-05-03T00:05:27.256Z,9.20
2019-05-03T00:08:07.168Z,9.30
2019-05-03T00:10:37.976Z,9.40
2019-05-03T00:13:09.127Z,9.30
2019-05-03T00:16:03.037Z,9.30
2019-05-03T00:18:32.815Z,9.20
2019-05-03T00:21:02.587Z,9.20
2019-05-03T00:23:32.546Z,9.20
2019-05-03T00:26:02.678Z,9.20
2019-05-03T00:28:32.276Z,9.20
2019-05-03T00:31:01.991Z,9.30
2019-05-03T00:33:31.882Z,9.20
2019-05-03T00:36:22.171Z,9.10
2019-05-03T00:38:53.621Z,9.20
2019-05-03T00:41:24.337Z,9.10
2019-05-03T00:43:53.813Z,9.10
2019-05-03T00:46:23.222Z,9.20
2019-05-03T00:48:53.232Z,9.20
2019-05-03T00:51:22.717Z,9.20
2019-05-03T00:53:53.041Z,9.10
2019-05-03T00:56:22.786Z,9.10
2019-05-03T00:59:02.049Z,9.20
2019-05-03T01:01:32.045Z,9.20
2019-05-03T01:04:01.885Z,9.10
2019-05-03T01:06:31.860Z,9.20
2019-05-03T01:09:02.641Z,9.20
2019-05-03T01:11:32.613Z,9.30
2019-05-03T01:14:02.618Z,9.30
2019-05-03T01:16:32.198Z,9.40
2019-05-03T01:19:02.590Z,9.50
2019-05-03T01:21:32.479Z,9.60
2019-05-03T01:24:01.945Z,9.70
2019-05-03T01:26:31.934Z,9.60
2019-05-03T01:29:02.748Z,9.60
2019-05-03T01:31:32.356Z,9.70
2019-05-03T01:34:02.333Z,9.80
2019-05-03T01:36:32.422Z,10.00
2019-05-03T01:39:02.205Z,10.00
2019-05-03T01:41:32.342Z,10.00
2019-05-03T01:44:02.155Z,10.00
2019-05-03T01:46:31.693Z,9.90
2019-05-03T01:49:18.330Z,9.90
2019-05-03T01:52:05.589Z,9.90
2019-05-03T01:54:35.133Z,9.90
2019-05-03T01:57:04.672Z,10.00
2019-05-03T01:59:34.101Z,10.00
2019-05-03T02:02:23.082Z,10.00
2019-05-03T02:05:12.062Z,10.00
2019-05-03T02:07:42.237Z,10.00
2019-05-03T02:10:12.339Z,10.10
2019-05-03T02:12:41.842Z,10.10
2019-05-03T02:15:12.058Z,10.20
2019-05-03T02:17:42.730Z,10.10
2019-05-03T02:20:12.733Z,10.10
2019-05-03T02:22:42.893Z,10.20
2019-05-03T02:25:12.702Z,10.10
2019-05-03T02:27:42.453Z,10.20
2019-05-03T02:30:14.448Z,10.30
2019-05-03T02:32:44.431Z,10.30
2019-05-03T02:35:14.307Z,10.20
2019-05-03T02:37:45.749Z,10.30
2019-05-03T02:40:20.203Z,10.30
2019-05-03T02:43:06.995Z,10.30
2019-05-03T02:45:42.546Z,10.10
2019-05-03T02:48:20.428Z,10.10
2019-05-03T02:50:49.962Z,10.00
2019-05-03T02:53:20.060Z,10.00
2019-05-03T02:55:49.940Z,10.00
2019-05-03T02:58:19.413Z,10.10
2019-05-03T03:00:57.261Z,10.10
2019-05-03T03:03:28.464Z,10.10
2019-05-03T03:05:59.516Z,10.10
2019-05-03T03:08:33.261Z,10.10
2019-05-03T03:11:06.257Z,10.10
2019-05-03T03:13:37.158Z,10.10
2019-05-03T03:16:08.252Z,10.20
2019-05-03T03:18:39.281Z,10.20
2019-05-03T03:21:16.090Z,10.20
2019-05-03T03:23:49.927Z,10.20
2019-05-03T03:26:34.455Z,10.30
2019-05-03T03:28:56.389Z,10.20
2019-05-03T03:31:37.844Z,10.20
2019-05-03T03:34:08.885Z,10.20
2019-05-03T03:36:58.888Z,10.20
2019-05-03T03:39:17.006Z,10.20
2019-05-03T03:41:47.448Z,10.20
2019-05-03T03:44:19.336Z,10.20
2019-05-03T03:46:50.692Z,10.20
2019-05-03T03:49:21.173Z,10.10
2019-05-03T03:51:52.764Z,10.10
2019-05-03T03:54:22.868Z,10.10
2019-05-03T03:57:03.860Z,10.10
2019-05-03T03:59:28.474Z,10.00
2019-05-03T04:01:58.594Z,10.00
2019-05-03T04:04:29.487Z,9.90
2019-05-03T04:07:01.308Z,9.70
2019-05-03T04:09:30.115Z,9.60
2019-05-03T04:11:59.543Z,9.50
2019-05-03T04:14:36.156Z,9.50
2019-05-03T04:17:26.166Z,9.50
2019-05-03T04:19:57.185Z,9.50
2019-05-03T04:22:26.660Z,9.40
2019-05-03T04:24:57.745Z,9.30
2019-05-03T04:27:27.911Z,9.30
2019-05-03T04:29:57.946Z,9.20
2019-05-03T04:32:29.038Z,9.20
2019-05-03T04:34:58.740Z,9.10
2019-05-03T04:37:28.408Z,9.00
2019-05-03T04:40:00.003Z,9.00
2019-05-03T04:42:29.460Z,8.90
2019-05-03T04:44:59.147Z,8.90
2019-05-03T04:47:28.626Z,8.80
2019-05-03T04:49:58.115Z,8.80
2019-05-03T04:52:27.810Z,8.70
2019-05-03T04:54:59.164Z,8.80
2019-05-03T04:57:40.016Z,8.80
2019-05-03T04:59:59.727Z,8.70
2019-05-03T05:02:30.115Z,8.60
2019-05-03T05:04:59.831Z,8.70
2019-05-03T05:07:29.285Z,8.60
2019-05-03T05:09:58.865Z,8.50
2019-05-03T05:12:28.348Z,8.60
2019-05-03T05:14:57.795Z,8.60
2019-05-03T05:17:52.267Z,8.70
2019-05-03T05:20:28.548Z,8.80
2019-05-03T05:22:58.050Z,8.90
2019-05-03T05:25:29.542Z,8.90
2019-05-03T05:28:20.175Z,9.00
2019-05-03T05:30:49.810Z,8.90
2019-05-03T05:33:22.571Z,9.00
2019-05-03T05:35:54.534Z,8.80
2019-05-03T05:38:25.590Z,8.90
2019-05-03T05:40:55.587Z,8.80
2019-05-03T05:43:26.456Z,8.80
2019-05-03T05:45:58.955Z,8.60
2019-05-03T05:48:40.152Z,8.60
2019-05-03T05:51:09.680Z,8.70
2019-05-03T05:53:39.156Z,8.50
2019-05-03T05:56:26.362Z,8.50
2019-05-03T05:59:20.825Z,8.50
2019-05-03T06:01:55.737Z,8.40
2019-05-03T06:04:25.390Z,8.40
2019-05-03T06:07:15.745Z,8.40
2019-05-03T06:10:07.704Z,8.40
2019-05-03T06:12:51.203Z,8.40
2019-05-03T06:15:44.752Z,8.30
2019-05-03T06:18:19.526Z,8.40
2019-05-03T06:21:07.559Z,8.50
2019-05-03T06:23:41.994Z,8.50
2019-05-03T06:26:29.240Z,8.60
2019-05-03T06:28:59.557Z,8.70
2019-05-03T06:31:36.135Z,8.60
2019-05-03T06:34:05.563Z,8.70
2019-05-03T06:36:35.489Z,8.70
2019-05-03T06:39:08.410Z,8.70
2019-05-03T06:41:38.000Z,8.60
2019-05-03T06:44:07.441Z,8.80
2019-05-03T06:46:45.564Z,8.70
2019-05-03T06:49:15.673Z,8.60
2019-05-03T06:51:49.483Z,8.70
2019-05-03T06:54:20.516Z,8.90
2019-05-03T06:56:47.923Z,8.70
2019-05-03T06:59:28.609Z,8.70
2019-05-03T07:02:14.835Z,8.70
2019-05-03T07:04:49.141Z,8.90
2019-05-03T07:07:35.531Z,8.80
2019-05-03T07:10:27.533Z,8.80
2019-05-03T07:13:01.660Z,8.80
2019-05-03T07:15:31.941Z,8.70
2019-05-03T07:18:01.553Z,8.70
2019-05-03T07:20:44.557Z,8.80
2019-05-03T07:23:15.597Z,8.70
2019-05-03T07:25:45.423Z,8.70
2019-05-03T07:28:15.209Z,8.80
2019-05-03T07:30:45.462Z,8.70
2019-05-03T07:33:25.431Z,8.70
2019-05-03T07:35:55.976Z,8.60
2019-05-03T07:38:26.071Z,8.60
2019-05-03T07:40:55.818Z,8.60
2019-05-03T07:43:25.279Z,8.60
2019-05-03T07:45:55.305Z,8.70
2019-05-03T07:48:25.627Z,8.70
2019-05-03T07:50:55.052Z,8.50
2019-05-03T07:53:25.163Z,8.50
2019-05-03T07:56:05.214Z,8.40
2019-05-03T07:58:35.305Z,8.40
2019-05-03T08:01:09.897Z,8.20
2019-05-03T08:03:39.650Z,8.20
2019-05-03T08:06:09.418Z,8.20
2019-05-03T08:08:38.852Z,8.30
2019-05-03T08:11:08.312Z,8.40
2019-05-03T08:13:38.034Z,8.50
2019-05-03T08:16:07.658Z,8.40
2019-05-03T08:18:37.100Z,8.40
2019-05-03T08:21:06.758Z,8.30
2019-05-03T08:23:36.239Z,8.30
2019-05-03T08:26:06.195Z,8.30
2019-05-03T08:28:35.786Z,8.40
2019-05-03T08:31:15.219Z,8.60
2019-05-03T08:33:56.674Z,8.80
2019-05-03T08:36:26.409Z,9.30
2019-05-03T08:38:56.344Z,9.50
2019-05-03T08:41:28.281Z,9.40
2019-05-03T08:43:57.917Z,9.20
2019-05-03T08:46:27.341Z,9.30
2019-05-03T08:48:56.984Z,9.40
2019-05-03T08:51:26.638Z,9.10
2019-05-03T08:53:59.166Z,9.10
2019-05-03T08:56:29.099Z,9.10
2019-05-03T08:58:58.569Z,9.10
2019-05-03T09:01:28.356Z,9.10
2019-05-03T09:03:59.896Z,9.80
2019-05-03T09:06:29.327Z,10.90
2019-05-03T09:08:59.141Z,11.90
2019-05-03T09:11:33.965Z,12.20
2019-05-03T09:14:04.596Z,11.30
2019-05-03T09:16:35.575Z,10.90
2019-05-03T09:19:05.683Z,10.80
2019-05-03T09:21:35.304Z,10.80
2019-05-03T09:24:05.358Z,10.80
2019-05-03T09:26:35.034Z,11.50
2019-05-03T09:29:07.584Z,11.50
2019-05-03T09:31:37.072Z,12.70
2019-05-03T09:34:08.303Z,13.50
2019-05-03T09:36:37.982Z,14.00
2019-05-03T09:39:08.538Z,14.00
2019-05-03T09:41:38.440Z,14.00
2019-05-03T09:44:07.914Z,13.30
2019-05-03T09:46:37.375Z,14.40
2019-05-03T09:49:12.772Z,16.00
2019-05-03T09:51:38.273Z,16.10
2019-05-03T09:54:34.698Z,16.40
2019-05-03T09:57:05.854Z,17.30
2019-05-03T09:59:35.344Z,16.10
2019-05-03T10:02:05.591Z,16.60
2019-05-03T10:04:36.663Z,16.90
2019-05-03T10:07:06.722Z,16.20
2019-05-03T10:09:36.205Z,17.40
2019-05-03T10:12:08.773Z,17.30
2019-05-03T10:14:38.176Z,15.70
2019-05-03T10:17:26.848Z,14.50
2019-05-03T10:19:56.582Z,15.30
2019-05-03T10:22:29.190Z,16.70
2019-05-03T10:24:59.108Z,17.50
2019-05-03T10:27:30.364Z,17.40
2019-05-03T10:30:12.365Z,16.10
2019-05-03T10:32:44.846Z,15.40
2019-05-03T10:35:15.235Z,16.30
2019-05-03T10:37:45.414Z,18.40
2019-05-03T10:40:17.932Z,16.80
2019-05-03T10:42:47.440Z,16.20
2019-05-03T10:45:17.623Z,16.60
2019-05-03T10:47:47.095Z,15.60
2019-05-03T10:50:16.947Z,15.00
2019-05-03T10:52:51.127Z,14.60
2019-05-03T10:55:20.603Z,14.60
2019-05-03T10:58:07.974Z,14.20
2019-05-03T11:00:45.148Z,14.40
2019-05-03T11:03:10.352Z,13.80
2019-05-03T11:05:40.656Z,13.70
2019-05-03T11:08:10.153Z,13.70
2019-05-03T11:10:43.703Z,13.50
2019-05-03T11:13:15.298Z,13.40
2019-05-03T11:15:44.519Z,13.10
2019-05-03T11:18:14.760Z,13.90
2019-05-03T11:20:45.276Z,14.40
2019-05-03T11:23:15.083Z,15.70
2019-05-03T11:25:45.217Z,17.80
2019-05-03T11:28:24.955Z,18.80
2019-05-03T11:31:01.326Z,19.40
2019-05-03T11:33:38.553Z,18.80
2019-05-03T11:36:15.414Z,17.50
2019-05-03T11:38:46.547Z,17.70
2019-05-03T11:41:29.188Z,17.20
2019-05-03T11:43:47.743Z,17.60
2019-05-03T11:46:17.234Z,17.00
2019-05-03T11:48:47.038Z,16.70
2019-05-03T11:51:16.488Z,16.40
2019-05-03T11:53:45.969Z,16.50
2019-05-03T11:56:15.534Z,17.50
2019-05-03T11:58:45.703Z,18.00
2019-05-03T12:01:36.983Z,18.50
2019-05-03T12:04:06.489Z,19.00
2019-05-03T12:06:36.787Z,17.80
2019-05-03T12:09:07.365Z,16.50
2019-05-03T12:11:38.436Z,15.80
2019-05-03T12:14:12.459Z,15.00
2019-05-03T12:17:17.269Z,14.80
2019-05-03T12:19:20.762Z,14.90
2019-05-03T12:21:49.604Z,14.80
2019-05-03T12:24:20.600Z,16.00
2019-05-03T12:26:50.363Z,17.50
2019-05-03T12:29:20.441Z,18.40
2019-05-03T12:31:49.956Z,19.00
2019-05-03T12:34:19.535Z,19.10
2019-05-03T12:36:51.250Z,19.10
2019-05-03T12:39:26.834Z,18.60
2019-05-03T12:41:51.776Z,16.60
2019-05-03T12:44:24.610Z,15.70
2019-05-03T12:46:54.687Z,14.40
2019-05-03T12:49:24.944Z,14.50
2019-05-03T12:51:55.820Z,14.50
2019-05-03T12:54:25.468Z,15.80
2019-05-03T12:56:56.044Z,17.50
2019-05-03T12:59:45.028Z,18.30
2019-05-03T13:02:20.732Z,16.80
2019-05-03T13:04:52.105Z,15.90
2019-05-03T13:07:30.697Z,17.10
2019-05-03T13:10:00.726Z,18.20
2019-05-03T13:12:31.128Z,19.40
2019-05-03T13:15:05.065Z,20.50
2019-05-03T13:17:38.275Z,19.70
2019-05-03T13:20:10.648Z,18.80
2019-05-03T13:22:40.150Z,18.90
2019-05-03T13:25:10.787Z,19.20
2019-05-03T13:27:40.286Z,20.10
2019-05-03T13:30:10.573Z,20.70
2019-05-03T13:32:40.246Z,19.10
2019-05-03T13:35:09.852Z,17.80
2019-05-03T13:37:39.326Z,16.90
2019-05-03T13:40:09.111Z,16.60
2019-05-03T13:42:39.190Z,15.80
2019-05-03T13:45:08.846Z,15.40
2019-05-03T13:47:40.294Z,15.10
2019-05-03T13:50:10.137Z,14.60
2019-05-03T13:52:39.906Z,14.70
2019-05-03T13:55:09.687Z,15.90
2019-05-03T13:57:39.190Z,16.10
2019-05-03T14:00:08.932Z,15.80
2019-05-03T14:02:38.420Z,15.70
2019-05-03T14:05:09.014Z,15.90
2019-05-03T14:07:38.430Z,16.20
2019-05-03T14:10:08.404Z,16.90
2019-05-03T14:12:37.826Z,17.80
2019-05-03T14:15:08.748Z,18.40
2019-05-03T14:17:38.208Z,18.30
2019-05-03T14:20:14.842Z,17.50
2019-05-03T14:22:45.482Z,16.80
2019-05-03T14:25:15.234Z,17.50
2019-05-03T14:27:45.585Z,17.10
2019-05-03T14:30:15.613Z,16.20
2019-05-03T14:32:45.394Z,15.70
2019-05-03T14:35:16.314Z,15.00
2019-05-03T14:37:46.027Z,16.10
2019-05-03T14:40:15.781Z,16.80
2019-05-03T14:42:45.193Z,17.10
2019-05-03T14:45:15.187Z,17.10
2019-05-03T14:47:44.692Z,17.40
2019-05-03T14:50:15.060Z,16.40
2019-05-03T14:52:45.537Z,15.20
2019-05-03T14:55:25.247Z,14.80
2019-05-03T14:58:06.494Z,14.30
2019-05-03T15:00:45.150Z,14.20
2019-05-03T15:03:18.088Z,14.20
2019-05-03T15:05:47.713Z,13.80
2019-05-03T15:08:17.115Z,14.10
2019-05-03T15:10:46.571Z,13.80
2019-05-03T15:13:16.056Z,13.80
2019-05-03T15:15:45.512Z,13.60
2019-05-03T15:18:15.054Z,13.50
2019-05-03T15:20:45.307Z,13.40
2019-05-03T15:23:15.055Z,13.20
2019-05-03T15:25:45.253Z,13.30
2019-05-03T15:28:14.804Z,13.50
2019-05-03T15:30:44.558Z,13.40
2019-05-03T15:33:15.124Z,13.00
2019-05-03T15:35:46.616Z,13.10
2019-05-03T15:38:16.192Z,13.00
2019-05-03T15:40:46.338Z,13.00
2019-05-03T15:43:28.943Z,13.00
2019-05-03T15:46:14.592Z,13.10
2019-05-03T15:48:55.690Z,13.60
2019-05-03T15:51:25.120Z,13.50
2019-05-03T15:53:55.177Z,13.30
2019-05-03T15:56:26.839Z,13.40
2019-05-03T15:58:55.994Z,13.30
2019-05-03T16:01:25.544Z,13.20
2019-05-03T16:03:55.590Z,13.00
2019-05-03T16:06:25.301Z,12.90
2019-05-03T16:08:55.310Z,12.80
2019-05-03T16:11:25.482Z,12.70
2019-05-03T16:13:55.463Z,12.70
2019-05-03T16:16:25.082Z,12.60
2019-05-03T16:18:54.869Z,12.60
2019-05-03T16:21:25.191Z,12.80
2019-05-03T16:23:56.173Z,12.70
2019-05-03T16:26:25.623Z,13.00
2019-05-03T16:29:04.707Z,12.90
2019-05-03T16:31:34.535Z,12.80
2019-05-03T16:34:04.271Z,12.80
2019-05-03T16:36:34.642Z,12.80
2019-05-03T16:39:07.514Z,12.70
2019-05-03T16:41:36.936Z,12.70
2019-05-03T16:44:06.435Z,12.80
2019-05-03T16:46:35.872Z,12.70
2019-05-03T16:49:06.530Z,12.60
2019-05-03T16:51:36.153Z,12.60
2019-05-03T16:54:05.673Z,12.30
2019-05-03T16:56:35.426Z,12.20
2019-05-03T16:59:05.758Z,12.20
2019-05-03T17:01:35.407Z,12.00
2019-05-03T17:04:34.558Z,11.80
2019-05-03T17:07:32.158Z,11.70
2019-05-03T17:10:25.419Z,11.70
2019-05-03T17:12:56.856Z,11.50
2019-05-03T17:15:25.679Z,11.40
2019-05-03T17:17:55.180Z,11.40
2019-05-03T17:20:25.897Z,11.30
2019-05-03T17:22:55.587Z,11.10
2019-05-03T17:25:25.047Z,11.00
2019-05-03T17:27:54.524Z,10.90
2019-05-03T17:30:32.670Z,10.90
2019-05-03T17:32:55.166Z,10.80
2019-05-03T17:35:25.142Z,10.70
2019-05-03T17:37:54.734Z,10.50
2019-05-03T17:40:35.752Z,10.40
2019-05-03T17:43:36.196Z,10.30
2019-05-03T17:46:06.748Z,10.20
2019-05-03T17:48:36.262Z,10.10
2019-05-03T17:51:05.729Z,10.10
2019-05-03T17:53:54.825Z,10.00
2019-05-03T17:56:44.512Z,10.00
2019-05-03T17:59:24.468Z,9.80
2019-05-03T18:02:16.043Z,9.70
2019-05-03T18:04:54.966Z,9.50
2019-05-03T18:07:58.595Z,9.40
2019-05-03T18:10:28.961Z,9.40
2019-05-03T18:12:58.445Z,9.20
2019-05-03T18:15:27.903Z,9.20
2019-05-03T18:17:57.396Z,9.20
2019-05-03T18:20:28.686Z,9.20
2019-05-03T18:22:58.156Z,9.20
2019-05-03T18:25:27.675Z,9.20
2019-05-03T18:27:57.141Z,9.20
2019-05-03T18:30:26.648Z,9.20
2019-05-03T18:32:56.050Z,9.30
2019-05-03T18:35:25.755Z,9.30
2019-05-03T18:37:59.034Z,9.20
2019-05-03T18:40:30.362Z,9.10
2019-05-03T18:43:05.063Z,9.10
2019-05-03T18:45:52.127Z,9.00
2019-05-03T18:48:24.455Z,9.00
2019-05-03T18:50:54.743Z,9.10
2019-05-03T18:53:25.193Z,9.20
2019-05-03T18:55:55.200Z,9.10
2019-05-03T18:58:24.597Z,9.20
2019-05-03T19:00:54.891Z,9.20
2019-05-03T19:03:25.164Z,9.20
2019-05-03T19:05:58.858Z,9.20
2019-05-03T19:08:44.737Z,9.10
2019-05-03T19:11:24.506Z,9.00
2019-05-03T19:13:57.330Z,9.00
2019-05-03T19:16:48.844Z,8.80
2019-05-03T19:19:20.092Z,8.60
2019-05-03T19:21:49.618Z,8.30
2019-05-03T19:24:19.092Z,8.10
2019-05-03T19:26:48.567Z,7.90
2019-05-03T19:29:18.170Z,7.70
2019-05-03T19:31:47.801Z,7.60
2019-05-03T19:34:17.662Z,7.40
2019-05-03T19:36:47.134Z,7.30
2019-05-03T19:39:16.682Z,7.20
2019-05-03T19:41:46.390Z,7.10
2019-05-03T19:44:16.245Z,6.90
2019-05-03T19:46:45.836Z,6.80
2019-05-03T19:49:15.414Z,6.70
2019-05-03T19:51:45.195Z,6.60
2019-05-03T19:54:14.783Z,6.50
2019-05-03T19:56:46.883Z,6.40
2019-05-03T19:59:35.397Z,6.20
2019-05-03T20:02:18.591Z,6.10
2019-05-03T20:05:09.996Z,6.00
2019-05-03T20:07:57.385Z,5.90
2019-05-03T20:10:26.868Z,5.80
2019-05-03T20:12:56.345Z,5.60
2019-05-03T20:15:25.810Z,5.50
2019-05-03T20:17:59.939Z,5.50
2019-05-03T20:20:26.669Z,5.40
2019-05-03T20:22:58.933Z,5.30
2019-05-03T20:25:28.069Z,5.20
2019-05-03T20:27:57.598Z,5.20
2019-05-03T20:30:27.295Z,5.10
2019-05-03T20:32:56.746Z,4.90
2019-05-03T20:35:26.231Z,4.90
2019-05-03T20:37:55.947Z,4.90
2019-05-03T20:40:25.716Z,4.80
2019-05-03T20:43:25.660Z,4.80
2019-05-03T20:46:15.078Z,4.70
2019-05-03T20:48:47.197Z,4.60
2019-05-03T20:51:16.792Z,4.50
2019-05-03T20:53:48.345Z,4.50
2019-05-03T20:56:18.263Z,4.50
2019-05-03T20:58:47.739Z,4.40
2019-05-03T21:01:17.618Z,4.30
2019-05-03T21:03:47.113Z,4.20
2019-05-03T21:06:16.812Z,4.20
2019-05-03T21:08:52.454Z,4.10
2019-05-03T21:11:18.578Z,4.10
2019-05-03T21:13:48.026Z,4.10
2019-05-03T21:16:31.438Z,4.00
2019-05-03T21:19:13.963Z,4.00
2019-05-03T21:21:47.243Z,3.90
2019-05-03T21:24:29.051Z,3.80
2019-05-03T21:26:58.469Z,3.90
2019-05-03T21:29:28.006Z,3.80
2019-05-03T21:31:57.450Z,3.80
2019-05-03T21:34:27.141Z,3.70
2019-05-03T21:36:56.632Z,3.70
2019-05-03T21:39:27.029Z,3.70
2019-05-03T21:41:57.175Z,3.70
2019-05-03T21:44:34.147Z,3.60
2019-05-03T21:47:12.919Z,3.60
2019-05-03T21:49:44.327Z,3.60
2019-05-03T21:52:14.706Z,3.50
2019-05-03T21:54:51.754Z,3.40
2019-05-03T21:57:21.432Z,3.40
2019-05-03T21:59:50.868Z,3.30
2019-05-03T22:02:24.654Z,3.30
2019-05-03T22:04:55.270Z,3.30
2019-05-03T22:07:26.846Z,3.20
2019-05-03T22:09:56.388Z,3.30
2019-05-03T22:12:25.810Z,3.30
2019-05-03T22:15:02.278Z,3.20
2019-05-03T22:17:49.304Z,3.30
2019-05-03T22:20:30.839Z,3.20
2019-05-03T22:23:14.957Z,3.10
2019-05-03T22:25:45.314Z,3.10
2019-05-03T22:28:15.570Z,3.10
2019-05-03T22:30:45.378Z,3.20
2019-05-03T22:33:14.958Z,3.00
2019-05-03T22:35:44.558Z,3.20
2019-05-03T22:38:14.171Z,3.10
2019-05-03T22:40:44.267Z,3.00
2019-05-03T22:43:14.776Z,2.90
2019-05-03T22:45:45.610Z,2.80
2019-05-03T22:48:15.076Z,2.80
2019-05-03T22:50:44.882Z,2.80
2019-05-03T22:53:14.818Z,2.80
2019-05-03T22:55:45.133Z,2.70
2019-05-03T22:58:15.369Z,2.70
2019-05-03T23:00:44.988Z,2.70
2019-05-03T23:03:15.004Z,2.60
2019-05-03T23:05:45.603Z,2.70
2019-05-03T23:08:15.244Z,2.50
2019-05-03T23:10:45.129Z,2.50
2019-05-03T23:13:15.413Z,2.40
2019-05-03T23:15:45.232Z,2.40
2019-05-03T23:18:14.682Z,2.30
2019-05-03T23:20:55.242Z,2.30
2019-05-03T23:23:47.324Z,2.20
2019-05-03T23:26:16.789Z,2.20
2019-05-03T23:28:46.430Z,2.20
2019-05-03T23:31:16.023Z,2.10
2019-05-03T23:33:45.487Z,2.10
2019-05-03T23:36:16.499Z,2.10
2019-05-03T23:38:46.374Z,2.00
2019-05-03T23:41:15.801Z,2.00
2019-05-03T23:43:45.833Z,1.00
2019-05-03T23:46:17.043Z,1.90
2019-05-03T23:48:46.514Z,2.00
2019-05-03T23:51:35.059Z,2.00
2019-05-03T23:54:05.615Z,2.00
2019-05-03T23:56:35.663Z,2.00
2019-05-03T23:59:05.602Z,1.90
